createdAt,value
2018-06-29T00:02:23.964Z,17.50
2018-06-29T00:04:52.320Z,17.40
2018-06-29T00:07:21.201Z,17.60
2018-06-29T00:09:49.499Z,17.70
2018-06-29T00:12:17.826Z,17.80
2018-06-29T00:14:46.263Z,17.70
2018-06-29T00:17:14.576Z,17.80
2018-06-29T00:19:42.916Z,17.70
2018-06-29T00:22:12.063Z,17.60
2018-06-29T00:24:40.303Z,17.40
2018-06-29T00:27:08.620Z,17.30
2018-06-29T00:29:36.927Z,17.10
2018-06-29T00:32:05.283Z,17.00
2018-06-29T00:34:33.624Z,17.00
2018-06-29T00:37:01.931Z,17.00
2018-06-29T00:39:31.072Z,16.90
2018-06-29T00:41:59.375Z,17.00
2018-06-29T00:44:27.696Z,17.00
2018-06-29T00:46:56.012Z,17.00
2018-06-29T00:49:24.347Z,17.00
2018-06-29T00:51:52.738Z,17.20
2018-06-29T00:54:21.926Z,17.30
2018-06-29T00:56:50.460Z,17.40
2018-06-29T00:59:18.816Z,17.50
2018-06-29T01:01:47.139Z,17.60
2018-06-29T01:04:15.448Z,17.70
2018-06-29T01:06:43.764Z,17.70
2018-06-29T01:09:13.031Z,17.80
2018-06-29T01:11:41.369Z,17.70
2018-06-29T01:14:09.833Z,17.70
2018-06-29T01:16:38.420Z,17.70
2018-06-29T01:19:07.343Z,17.50
2018-06-29T01:21:35.796Z,17.40
2018-06-29T01:24:04.276Z,17.10
2018-06-29T01:26:32.759Z,17.00
2018-06-29T01:29:01.104Z,17.00
2018-06-29T01:31:29.436Z,16.90
2018-06-29T01:33:57.772Z,16.80
2018-06-29T01:36:26.080Z,16.80
2018-06-29T01:38:54.412Z,16.70
2018-06-29T01:41:22.772Z,16.50
2018-06-29T01:43:51.060Z,16.40
2018-06-29T01:46:19.372Z,16.30
2018-06-29T01:48:47.672Z,16.20
2018-06-29T01:51:15.992Z,16.20
2018-06-29T01:53:44.324Z,16.20
2018-06-29T01:56:12.647Z,16.30
2018-06-29T01:58:41.011Z,16.30
2018-06-29T02:01:09.341Z,16.40
2018-06-29T02:03:37.652Z,16.50
2018-06-29T02:06:07.015Z,16.50
2018-06-29T02:08:35.332Z,16.60
2018-06-29T02:11:03.684Z,16.60
2018-06-29T02:13:32.635Z,16.70
2018-06-29T02:16:00.963Z,17.00
2018-06-29T02:18:29.702Z,17.10
2018-06-29T02:20:58.032Z,17.30
2018-06-29T02:23:26.383Z,17.40
2018-06-29T02:25:54.711Z,17.50
2018-06-29T02:28:23.036Z,17.40
2018-06-29T02:30:51.570Z,17.40
2018-06-29T02:33:19.829Z,17.10
2018-06-29T02:35:48.117Z,16.80
2018-06-29T02:38:16.430Z,16.40
2018-06-29T02:40:44.749Z,16.00
2018-06-29T02:43:13.141Z,15.80
2018-06-29T02:45:41.453Z,15.80
2018-06-29T02:48:09.829Z,15.90
2018-06-29T02:50:38.651Z,16.00
2018-06-29T02:53:08.012Z,16.00
2018-06-29T02:55:36.328Z,16.00
2018-06-29T02:58:04.681Z,16.00
2018-06-29T03:00:33.003Z,15.80
2018-06-29T03:03:02.301Z,15.60
2018-06-29T03:05:30.600Z,15.30
2018-06-29T03:07:58.952Z,15.30
2018-06-29T03:10:27.285Z,15.30
2018-06-29T03:12:55.604Z,15.40
2018-06-29T03:15:23.918Z,15.30
2018-06-29T03:17:52.204Z,15.40
2018-06-29T03:20:20.527Z,15.60
2018-06-29T03:22:48.852Z,15.80
2018-06-29T03:25:17.204Z,16.00
2018-06-29T03:27:45.492Z,16.20
2018-06-29T03:30:13.810Z,16.20
2018-06-29T03:32:42.130Z,16.20
2018-06-29T03:35:10.428Z,15.90
2018-06-29T03:37:38.728Z,15.60
2018-06-29T03:40:07.164Z,15.40
2018-06-29T03:42:35.469Z,15.40
2018-06-29T03:45:04.257Z,15.40
2018-06-29T03:47:32.543Z,15.30
2018-06-29T03:50:00.880Z,15.40
2018-06-29T03:52:29.188Z,15.40
2018-06-29T03:54:57.480Z,15.50
2018-06-29T03:57:26.077Z,15.60
2018-06-29T03:59:54.416Z,15.70
2018-06-29T04:02:22.767Z,15.70
2018-06-29T04:04:51.071Z,15.70
2018-06-29T04:07:19.445Z,15.70
2018-06-29T04:09:47.751Z,15.60
2018-06-29T04:12:16.065Z,15.50
2018-06-29T04:14:44.380Z,15.50
2018-06-29T04:17:12.708Z,15.60
2018-06-29T04:19:41.039Z,15.50
2018-06-29T04:22:09.852Z,15.50
2018-06-29T04:24:38.191Z,15.60
2018-06-29T04:27:06.508Z,15.70
2018-06-29T04:29:34.848Z,15.80
2018-06-29T04:32:03.153Z,15.90
2018-06-29T04:34:31.460Z,16.00
2018-06-29T04:36:59.808Z,16.10
2018-06-29T04:39:28.131Z,16.20
2018-06-29T04:41:56.470Z,16.30
2018-06-29T04:44:24.783Z,16.40
2018-06-29T04:46:53.111Z,16.40
2018-06-29T04:49:22.255Z,16.50
2018-06-29T04:51:50.569Z,16.60
2018-06-29T04:54:18.907Z,16.60
2018-06-29T04:56:47.588Z,16.70
2018-06-29T04:59:15.906Z,16.80
2018-06-29T05:01:44.250Z,16.80
2018-06-29T05:04:12.584Z,16.80
2018-06-29T05:06:41.409Z,16.90
2018-06-29T05:09:09.843Z,16.90
2018-06-29T05:11:38.692Z,17.00
2018-06-29T05:14:07.163Z,17.10
2018-06-29T05:16:36.156Z,17.20
2018-06-29T05:19:05.198Z,17.20
2018-06-29T05:21:33.636Z,17.30
2018-06-29T05:24:02.163Z,17.30
2018-06-29T05:26:30.543Z,17.40
2018-06-29T05:28:58.868Z,17.50
2018-06-29T05:31:27.597Z,17.70
2018-06-29T05:33:56.034Z,17.70
2018-06-29T05:36:24.441Z,17.90
2018-06-29T05:38:52.749Z,17.90
2018-06-29T05:41:21.146Z,18.00
2018-06-29T05:43:49.472Z,18.00
2018-06-29T05:46:17.839Z,18.10
2018-06-29T05:48:46.216Z,18.20
2018-06-29T05:51:14.513Z,18.30
2018-06-29T05:53:42.825Z,18.40
2018-06-29T05:56:11.141Z,18.50
2018-06-29T05:58:39.515Z,18.60
2018-06-29T06:01:09.808Z,18.60
2018-06-29T06:03:38.147Z,18.60
2018-06-29T06:06:06.936Z,18.70
2018-06-29T06:08:35.308Z,18.80
2018-06-29T06:11:03.648Z,18.90
2018-06-29T06:13:32.265Z,18.90
2018-06-29T06:16:01.200Z,19.10
2018-06-29T06:18:29.844Z,19.10
2018-06-29T06:20:58.188Z,19.10
2018-06-29T06:23:26.500Z,19.20
2018-06-29T06:25:54.809Z,19.20
2018-06-29T06:28:23.167Z,19.40
2018-06-29T06:30:51.544Z,19.40
2018-06-29T06:33:19.887Z,19.40
2018-06-29T06:35:48.224Z,19.50
2018-06-29T06:38:16.527Z,19.60
2018-06-29T06:40:45.099Z,19.70
2018-06-29T06:43:13.412Z,19.70
2018-06-29T06:45:41.748Z,19.80
2018-06-29T06:48:10.088Z,19.90
2018-06-29T06:50:38.755Z,19.90
2018-06-29T06:53:07.112Z,19.90
2018-06-29T06:55:35.419Z,19.90
2018-06-29T06:58:03.760Z,20.00
2018-06-29T07:00:32.060Z,20.10
2018-06-29T07:03:00.360Z,20.20
2018-06-29T07:05:28.700Z,20.30
2018-06-29T07:07:57.004Z,20.50
2018-06-29T07:10:25.304Z,20.60
2018-06-29T07:12:53.615Z,20.70
2018-06-29T07:15:22.224Z,20.80
2018-06-29T07:17:50.583Z,21.00
2018-06-29T07:20:18.876Z,21.00
2018-06-29T07:22:47.188Z,21.10
2018-06-29T07:25:15.512Z,21.10
2018-06-29T07:27:45.975Z,21.30
2018-06-29T07:30:14.340Z,21.40
2018-06-29T07:32:42.647Z,21.50
2018-06-29T07:35:10.978Z,21.80
2018-06-29T07:37:39.273Z,21.80
2018-06-29T07:40:07.628Z,21.80
2018-06-29T07:42:35.957Z,21.90
2018-06-29T07:45:05.004Z,22.00
2018-06-29T07:47:33.344Z,22.30
2018-06-29T07:50:01.681Z,22.30
2018-06-29T07:52:29.988Z,22.20
2018-06-29T07:54:58.297Z,22.20
2018-06-29T07:57:26.613Z,22.30
2018-06-29T07:59:54.928Z,22.40
2018-06-29T08:02:23.244Z,22.60
2018-06-29T08:04:51.536Z,22.70
2018-06-29T08:07:19.844Z,22.80
2018-06-29T08:09:48.139Z,22.90
2018-06-29T08:12:16.475Z,23.00
2018-06-29T08:14:45.072Z,23.30
2018-06-29T08:17:13.445Z,23.40
2018-06-29T08:19:41.732Z,23.50
2018-06-29T08:22:10.560Z,23.50
2018-06-29T08:24:49.964Z,23.30
2018-06-29T08:27:18.287Z,23.60
2018-06-29T08:29:46.600Z,23.60
2018-06-29T08:32:14.912Z,23.70
2018-06-29T08:34:43.234Z,23.70
2018-06-29T08:37:11.981Z,23.90
2018-06-29T08:39:40.329Z,24.00
2018-06-29T08:42:09.460Z,24.10
2018-06-29T08:44:37.807Z,24.20
2018-06-29T08:47:06.390Z,24.30
2018-06-29T08:49:34.795Z,24.40
2018-06-29T08:52:03.156Z,24.50
2018-06-29T08:54:31.476Z,24.50
2018-06-29T08:56:59.916Z,24.90
2018-06-29T08:59:28.228Z,25.00
2018-06-29T09:01:57.175Z,24.90
2018-06-29T09:04:25.766Z,24.90
2018-06-29T09:06:54.066Z,25.00
2018-06-29T09:09:22.369Z,25.00
2018-06-29T09:11:50.701Z,25.20
2018-06-29T09:14:19.012Z,25.40
2018-06-29T09:16:47.351Z,25.40
2018-06-29T09:19:15.724Z,25.50
2018-06-29T09:21:44.036Z,25.50
2018-06-29T09:24:12.320Z,25.70
2018-06-29T09:26:40.644Z,25.80
2018-06-29T09:29:09.015Z,25.90
2018-06-29T09:31:37.502Z,25.60
2018-06-29T09:34:05.835Z,25.90
2018-06-29T09:36:34.367Z,26.10
2018-06-29T09:39:02.729Z,26.10
2018-06-29T09:41:31.093Z,26.40
2018-06-29T09:43:59.656Z,26.40
2018-06-29T09:46:28.272Z,26.20
2018-06-29T09:48:56.572Z,26.50
2018-06-29T09:51:25.092Z,26.40
2018-06-29T09:53:53.408Z,26.50
2018-06-29T09:56:21.740Z,26.50
2018-06-29T09:58:50.804Z,26.60
2018-06-29T10:01:19.188Z,26.70
2018-06-29T10:03:47.437Z,26.80
2018-06-29T10:06:15.829Z,27.00
2018-06-29T10:08:44.132Z,27.00
2018-06-29T10:11:12.456Z,27.30
2018-06-29T10:13:40.793Z,27.20
2018-06-29T10:16:09.091Z,27.20
2018-06-29T10:18:37.429Z,27.30
2018-06-29T10:21:05.764Z,27.20
2018-06-29T10:23:34.116Z,27.20
2018-06-29T10:26:02.476Z,27.10
2018-06-29T10:28:30.911Z,27.30
2018-06-29T10:30:59.377Z,27.80
2018-06-29T10:33:27.712Z,27.90
2018-06-29T10:35:56.099Z,28.00
2018-06-29T10:38:24.391Z,28.00
2018-06-29T10:40:53.339Z,28.10
2018-06-29T10:43:21.656Z,28.40
2018-06-29T10:45:49.969Z,28.30
2018-06-29T10:48:18.323Z,28.50
2018-06-29T10:50:46.698Z,28.80
2018-06-29T10:53:14.992Z,29.10
2018-06-29T10:55:43.901Z,29.00
2018-06-29T10:58:12.208Z,29.10
2018-06-29T11:00:40.528Z,29.10
2018-06-29T11:03:08.947Z,29.10
2018-06-29T11:05:37.323Z,29.40
2018-06-29T11:08:05.743Z,29.60
2018-06-29T11:10:34.089Z,29.80
2018-06-29T11:13:02.432Z,29.90
2018-06-29T11:15:30.820Z,29.90
2018-06-29T11:17:59.749Z,29.70
2018-06-29T11:20:28.096Z,29.70
2018-06-29T11:22:56.492Z,29.80
2018-06-29T11:25:25.054Z,30.10
2018-06-29T11:27:53.348Z,30.20
2018-06-29T11:30:21.722Z,30.20
2018-06-29T11:32:50.112Z,30.50
2018-06-29T11:35:18.420Z,30.50
2018-06-29T11:37:46.727Z,30.50
2018-06-29T11:40:15.074Z,30.70
2018-06-29T11:42:43.977Z,31.10
2018-06-29T11:45:12.333Z,31.20
2018-06-29T11:47:40.629Z,31.10
2018-06-29T11:50:08.967Z,31.10
2018-06-29T11:52:37.263Z,31.10
2018-06-29T11:55:05.900Z,31.40
2018-06-29T11:57:34.212Z,31.30
2018-06-29T12:00:02.564Z,31.00
2018-06-29T12:02:31.016Z,31.40
2018-06-29T12:04:59.337Z,31.80
2018-06-29T12:07:27.701Z,31.90
2018-06-29T12:09:56.024Z,32.30
2018-06-29T12:12:24.416Z,31.90
2018-06-29T12:14:52.882Z,32.30
2018-06-29T12:17:21.149Z,32.40
2018-06-29T12:19:49.461Z,32.30
2018-06-29T12:22:17.802Z,32.00
2018-06-29T12:24:46.112Z,32.10
2018-06-29T12:27:14.420Z,31.80
2018-06-29T12:29:42.743Z,32.30
2018-06-29T12:32:11.165Z,32.60
2018-06-29T12:34:39.468Z,32.90
2018-06-29T12:37:07.814Z,32.80
2018-06-29T12:39:36.140Z,32.80
2018-06-29T12:42:04.521Z,32.90
2018-06-29T12:44:33.327Z,33.30
2018-06-29T12:47:01.624Z,33.40
2018-06-29T12:49:30.096Z,33.30
2018-06-29T12:51:58.398Z,33.70
2018-06-29T12:54:26.737Z,33.30
2018-06-29T12:56:55.036Z,33.60
2018-06-29T12:59:23.347Z,34.00
2018-06-29T13:01:51.639Z,33.70
2018-06-29T13:04:19.949Z,33.50
2018-06-29T13:06:48.279Z,33.90
2018-06-29T13:09:16.578Z,34.20
2018-06-29T13:11:44.868Z,34.60
2018-06-29T13:14:13.245Z,34.00
2018-06-29T13:16:41.487Z,33.80
2018-06-29T13:19:09.823Z,33.70
2018-06-29T13:21:38.132Z,33.90
2018-06-29T13:24:06.487Z,33.70
2018-06-29T13:26:34.904Z,33.90
2018-06-29T13:29:03.535Z,34.70
2018-06-29T13:31:31.884Z,35.10
2018-06-29T13:34:00.207Z,34.60
2018-06-29T13:36:28.568Z,34.50
2018-06-29T13:38:56.941Z,35.30
2018-06-29T13:41:25.254Z,34.70
2018-06-29T13:43:54.195Z,34.60
2018-06-29T13:46:22.451Z,34.60
2018-06-29T13:48:51.305Z,34.20
2018-06-29T13:51:19.620Z,34.70
2018-06-29T13:53:47.935Z,34.40
2018-06-29T13:56:16.321Z,34.70
2018-06-29T13:58:44.624Z,34.70
2018-06-29T14:01:12.960Z,34.70
2018-06-29T14:03:41.288Z,34.80
2018-06-29T14:06:10.360Z,34.80
2018-06-29T14:08:38.732Z,35.30
2018-06-29T14:11:07.045Z,34.80
2018-06-29T14:13:35.444Z,34.50
2018-06-29T14:16:04.692Z,35.00
2018-06-29T14:18:33.028Z,34.60
2018-06-29T14:21:01.328Z,35.10
2018-06-29T14:23:29.640Z,35.70
2018-06-29T14:25:57.969Z,35.70
2018-06-29T14:28:26.288Z,35.20
2018-06-29T14:30:54.620Z,35.00
2018-06-29T14:33:24.003Z,35.20
2018-06-29T14:35:53.153Z,35.70
2018-06-29T14:38:21.499Z,36.10
2018-06-29T14:40:49.837Z,35.80
2018-06-29T14:43:18.180Z,35.60
2018-06-29T14:45:46.513Z,35.50
2018-06-29T14:48:14.811Z,36.30
2018-06-29T14:50:43.208Z,36.30
2018-06-29T14:53:11.642Z,36.70
2018-06-29T14:55:39.961Z,36.80
2018-06-29T14:58:08.250Z,36.80
2018-06-29T15:00:36.580Z,36.80
2018-06-29T15:03:05.094Z,36.30
2018-06-29T15:05:34.779Z,36.10
2018-06-29T15:08:03.092Z,37.00
2018-06-29T15:10:31.396Z,37.00
2018-06-29T15:13:00.384Z,36.00
2018-06-29T15:15:28.748Z,36.20
2018-06-29T15:17:57.072Z,36.90
2018-06-29T15:20:25.438Z,36.60
2018-06-29T15:22:53.767Z,36.40
2018-06-29T15:25:22.121Z,35.80
2018-06-29T15:27:50.387Z,35.80
2018-06-29T15:30:19.437Z,36.00
2018-06-29T15:32:47.768Z,35.90
2018-06-29T15:35:16.101Z,36.00
2018-06-29T15:37:44.418Z,36.00
2018-06-29T15:40:12.723Z,35.80
2018-06-29T15:42:41.034Z,36.00
2018-06-29T15:45:09.388Z,35.60
2018-06-29T15:47:37.720Z,36.20
2018-06-29T15:50:06.207Z,36.10
2018-06-29T15:52:35.052Z,35.80
2018-06-29T15:55:03.809Z,35.80
2018-06-29T15:57:32.132Z,35.80
2018-06-29T16:00:00.477Z,35.70
2018-06-29T16:02:28.912Z,36.30
2018-06-29T16:04:57.240Z,35.90
2018-06-29T16:07:25.623Z,36.00
2018-06-29T16:09:53.964Z,35.90
2018-06-29T16:12:22.248Z,35.60
2018-06-29T16:14:50.559Z,36.20
2018-06-29T16:17:18.875Z,36.10
2018-06-29T16:19:47.208Z,36.40
2018-06-29T16:22:15.544Z,35.90
2018-06-29T16:24:43.854Z,35.80
2018-06-29T16:27:12.192Z,35.60
2018-06-29T16:29:40.513Z,36.20
2018-06-29T16:32:09.427Z,36.10
2018-06-29T16:34:37.741Z,35.70
2018-06-29T16:37:10.741Z,35.80
2018-06-29T16:39:41.447Z,35.30
2018-06-29T16:42:09.907Z,35.60
2018-06-29T16:44:41.114Z,35.80
2018-06-29T16:47:12.717Z,35.40
2018-06-29T16:49:41.303Z,35.10
2018-06-29T16:52:09.652Z,35.50
2018-06-29T16:54:37.996Z,35.70
2018-06-29T16:57:06.335Z,35.40
2018-06-29T16:59:34.637Z,35.20
2018-06-29T17:02:02.955Z,35.10
2018-06-29T17:04:31.256Z,35.40
2018-06-29T17:06:59.568Z,35.50
2018-06-29T17:09:27.867Z,34.80
2018-06-29T17:11:56.159Z,34.60
2018-06-29T17:14:24.848Z,34.30
2018-06-29T17:16:53.218Z,34.10
2018-06-29T17:19:21.595Z,33.80
2018-06-29T17:21:49.916Z,33.80
2018-06-29T17:24:18.220Z,33.90
2018-06-29T17:26:46.564Z,34.40
2018-06-29T17:29:14.935Z,34.60
2018-06-29T17:31:43.192Z,34.00
2018-06-29T17:34:11.676Z,33.90
2018-06-29T17:36:40.002Z,33.70
2018-06-29T17:39:09.678Z,33.90
2018-06-29T17:41:38.177Z,33.40
2018-06-29T17:44:06.489Z,33.20
2018-06-29T17:46:34.918Z,32.90
2018-06-29T17:49:03.296Z,32.50
2018-06-29T17:51:31.645Z,32.50
2018-06-29T17:54:00.002Z,33.00
2018-06-29T17:56:28.260Z,32.70
2018-06-29T17:58:56.585Z,32.70
2018-06-29T18:01:25.019Z,32.20
2018-06-29T18:03:53.321Z,32.30
2018-06-29T18:06:21.644Z,32.20
2018-06-29T18:08:49.948Z,31.80
2018-06-29T18:11:18.264Z,32.00
2018-06-29T18:13:46.551Z,31.70
2018-06-29T18:16:14.955Z,31.80
2018-06-29T18:18:43.164Z,31.70
2018-06-29T18:21:11.472Z,31.20
2018-06-29T18:23:39.798Z,31.10
2018-06-29T18:26:08.091Z,31.00
2018-06-29T18:28:36.452Z,30.90
2018-06-29T18:31:04.803Z,30.70
2018-06-29T18:33:33.238Z,30.60
2018-06-29T18:36:01.628Z,30.70
2018-06-29T18:38:29.936Z,30.70
2018-06-29T18:40:58.267Z,31.10
2018-06-29T18:43:26.586Z,31.20
2018-06-29T18:45:54.946Z,31.10
2018-06-29T18:48:23.265Z,30.80
2018-06-29T18:50:51.607Z,30.50
2018-06-29T18:53:20.049Z,29.80
2018-06-29T18:55:48.384Z,29.70
2018-06-29T18:58:17.831Z,30.20
2018-06-29T19:00:46.133Z,29.70
2018-06-29T19:03:14.520Z,29.60
2018-06-29T19:05:42.865Z,29.30
2018-06-29T19:08:11.181Z,28.70
2018-06-29T19:10:39.497Z,28.40
2018-06-29T19:13:07.948Z,28.60
2018-06-29T19:15:36.247Z,28.70
2018-06-29T19:18:04.682Z,28.60
2018-06-29T19:20:34.000Z,28.30
2018-06-29T19:23:02.312Z,28.10
2018-06-29T19:25:30.652Z,27.70
2018-06-29T19:27:58.952Z,27.60
2018-06-29T19:30:27.268Z,27.40
2018-06-29T19:32:55.580Z,27.10
2018-06-29T19:35:23.912Z,26.90
2018-06-29T19:37:52.357Z,26.80
2018-06-29T19:40:20.668Z,26.50
2018-06-29T19:42:49.116Z,26.40
2018-06-29T19:45:17.424Z,26.20
2018-06-29T19:47:45.819Z,26.00
2018-06-29T19:50:14.212Z,25.80
2018-06-29T19:52:42.592Z,25.30
2018-06-29T19:55:10.932Z,25.00
2018-06-29T19:57:39.952Z,24.70
2018-06-29T20:00:08.315Z,24.30
2018-06-29T20:02:36.637Z,24.00
2018-06-29T20:05:05.367Z,23.80
2018-06-29T20:07:33.645Z,23.70
2018-06-29T20:10:01.995Z,23.80
2018-06-29T20:12:30.335Z,23.60
2018-06-29T20:14:58.967Z,23.60
2018-06-29T20:17:27.360Z,23.70
2018-06-29T20:19:55.900Z,23.70
2018-06-29T20:22:24.189Z,23.60
2018-06-29T20:24:52.516Z,23.60
2018-06-29T20:27:20.904Z,23.50
2018-06-29T20:29:49.200Z,23.30
2018-06-29T20:32:17.572Z,23.40
2018-06-29T20:34:45.877Z,23.30
2018-06-29T20:37:14.215Z,23.30
2018-06-29T20:39:42.537Z,23.30
2018-06-29T20:42:10.865Z,23.20
2018-06-29T20:44:39.926Z,23.10
2018-06-29T20:47:08.239Z,22.90
2018-06-29T20:49:36.562Z,22.50
2018-06-29T20:52:04.903Z,22.20
2018-06-29T20:54:33.475Z,22.00
2018-06-29T20:57:01.785Z,21.90
2018-06-29T20:59:30.119Z,21.80
2018-06-29T21:01:58.424Z,21.60
2018-06-29T21:04:26.768Z,21.50
2018-06-29T21:06:55.116Z,21.20
2018-06-29T21:09:23.440Z,20.90
2018-06-29T21:11:51.859Z,20.80
2018-06-29T21:14:20.174Z,20.80
2018-06-29T21:16:48.491Z,20.80
2018-06-29T21:19:16.849Z,20.80
2018-06-29T21:21:45.260Z,20.70
2018-06-29T21:24:13.712Z,20.70
2018-06-29T21:26:42.041Z,20.90
2018-06-29T21:29:10.387Z,20.80
2018-06-29T21:31:38.684Z,20.70
2018-06-29T21:34:07.064Z,20.50
2018-06-29T21:36:35.392Z,20.70
2018-06-29T21:39:04.637Z,20.60
2018-06-29T21:41:32.936Z,20.60
2018-06-29T21:44:01.266Z,20.60
2018-06-29T21:46:29.594Z,20.50
2018-06-29T21:48:57.940Z,20.40
2018-06-29T21:51:26.319Z,20.40
2018-06-29T21:53:54.722Z,20.30
2018-06-29T21:56:23.016Z,20.10
2018-06-29T21:58:51.315Z,20.20
2018-06-29T22:01:19.614Z,20.20
2018-06-29T22:03:47.960Z,20.20
2018-06-29T22:06:16.268Z,20.20
2018-06-29T22:08:44.556Z,20.20
2018-06-29T22:11:12.875Z,20.20
2018-06-29T22:13:41.265Z,20.30
2018-06-29T22:16:09.583Z,20.20
2018-06-29T22:18:37.892Z,20.20
2018-06-29T22:21:06.288Z,20.10
2018-06-29T22:23:34.588Z,19.90
2018-06-29T22:26:02.947Z,19.80
2018-06-29T22:28:31.268Z,19.70
2018-06-29T22:30:59.575Z,19.70
2018-06-29T22:33:28.163Z,19.60
2018-06-29T22:35:56.505Z,19.60
2018-06-29T22:38:24.831Z,19.50
2018-06-29T22:40:53.124Z,19.40
2018-06-29T22:43:21.436Z,19.40
2018-06-29T22:45:49.755Z,19.50
2018-06-29T22:48:18.121Z,19.50
2018-06-29T22:50:46.449Z,19.40
2018-06-29T22:53:15.488Z,19.30
2018-06-29T22:55:43.796Z,19.40
2018-06-29T22:58:12.735Z,19.50
2018-06-29T23:00:41.062Z,19.50
2018-06-29T23:03:11.048Z,19.60
2018-06-29T23:05:39.372Z,19.60
2018-06-29T23:08:10.069Z,19.60
2018-06-29T23:10:38.692Z,19.70
2018-06-29T23:13:07.275Z,19.60
2018-06-29T23:15:35.592Z,19.50
2018-06-29T23:18:04.020Z,19.50
2018-06-29T23:20:32.376Z,19.60
2018-06-29T23:23:00.695Z,19.60
2018-06-29T23:25:29.101Z,19.60
2018-06-29T23:27:57.388Z,19.60
2018-06-29T23:30:25.689Z,19.60
2018-06-29T23:32:54.011Z,19.50
2018-06-29T23:35:22.339Z,19.50
2018-06-29T23:37:50.673Z,19.40
2018-06-29T23:40:18.981Z,19.30
2018-06-29T23:42:47.312Z,19.10
2018-06-29T23:45:15.617Z,19.10
2018-06-29T23:47:43.936Z,19.10
2018-06-29T23:50:12.260Z,19.10
2018-06-29T23:52:40.577Z,19.10
2018-06-29T23:55:08.920Z,19.10
2018-06-29T23:57:37.254Z,18.90
